Time;durP1;ratioP1;P1;durP2;ratioP2;P2;SDS_P1;SDS_P2;PMS_P1;PMS_P2;Temp;Humidity;BMP_temperature;BMP_pressure;BME280_temperature;BME280_humidity;BME280_pressure;Samples;Min_cycle;Max_cycle;Signal;HPM_P1;HPM_P2
2023/03/18 00:01:03;;;;;;;137.63;132.77;;;10.30;99.90;;;;;;6123328;23;20501;-78
2023/03/18 00:03:30;;;;;;;161.57;156.07;;;10.20;99.90;;;;;;6124883;23;20422;-78
2023/03/18 00:06:10;;;;;;;189.80;183.33;;;10.10;99.90;;;;;;6125954;23;20922;-78
2023/03/18 00:08:38;;;;;;;268.07;259.30;;;10.00;99.90;;;;;;6099751;23;20435;-78
2023/03/18 00:11:06;;;;;;;312.87;302.60;;;9.90;99.90;;;;;;6125620;23;20933;-78
2023/03/18 00:13:34;;;;;;;349.57;337.13;;;9.90;99.90;;;;;;6125789;23;20884;-78
2023/03/18 00:16:01;;;;;;;327.63;316.23;;;9.90;99.90;;;;;;6125202;23;20630;-78
2023/03/18 00:18:28;;;;;;;387.80;373.90;;;10.00;99.90;;;;;;6125526;23;20434;-78
2023/03/18 00:20:57;;;;;;;396.40;382.30;;;9.90;99.90;;;;;;6124835;23;20414;-78
2023/03/18 00:23:23;;;;;;;309.73;299.57;;;9.80;99.90;;;;;;6124434;23;20434;-78
2023/03/18 00:25:53;;;;;;;227.83;220.40;;;10.10;99.90;;;;;;6125619;23;20520;-78
2023/03/18 00:28:21;;;;;;;229.37;221.87;;;10.10;99.90;;;;;;6135215;23;20430;-79
2023/03/18 00:30:49;;;;;;;294.60;284.93;;;10.10;99.90;;;;;;6099235;23;20469;-78
2023/03/18 00:33:17;;;;;;;297.70;287.83;;;10.10;99.90;;;;;;6125789;23;20434;-78
2023/03/18 00:35:45;;;;;;;350.30;338.53;;;10.00;99.90;;;;;;6125850;23;20418;-78
2023/03/18 00:38:19;;;;;;;344.73;332.93;;;9.90;99.90;;;;;;6125287;23;20438;-78
2023/03/18 00:41:09;;;;;;;342.87;331.23;;;9.80;99.90;;;;;;6124867;23;20932;-78
2023/03/18 00:43:45;;;;;;;382.80;369.47;;;9.80;99.90;;;;;;6120761;23;20454;-77
2023/03/18 00:46:17;;;;;;;402.47;387.97;;;9.60;99.90;;;;;;6125842;23;20403;-78
2023/03/18 00:48:45;;;;;;;444.07;427.33;;;9.60;99.90;;;;;;6124546;23;20438;-78
2023/03/18 00:51:15;;;;;;;472.07;453.40;;;9.50;99.90;;;;;;6124297;23;20418;-77
2023/03/18 00:53:46;;;;;;;493.93;473.13;;;9.50;99.90;;;;;;6098962;23;20415;-77
2023/03/18 00:56:16;;;;;;;516.90;494.47;;;9.40;99.90;;;;;;6124952;23;20766;-78
2023/03/18 00:58:45;;;;;;;531.70;508.50;;;9.50;99.90;;;;;;6099338;23;20445;-78
2023/03/18 01:01:16;;;;;;;552.47;526.57;;;9.50;99.90;;;;;;6125255;23;20414;-78
2023/03/18 01:03:45;;;;;;;578.37;551.03;;;9.50;99.90;;;;;;6124865;23;20432;-78
2023/03/18 01:06:16;;;;;;;593.50;563.87;;;9.40;99.90;;;;;;6125183;23;20419;-78
2023/03/18 01:08:43;;;;;;;589.23;559.17;;;9.50;99.90;;;;;;6132270;23;20826;-78
2023/03/18 01:11:12;;;;;;;580.10;550.00;;;9.40;99.90;;;;;;6124011;23;20422;-77
2023/03/18 01:13:40;;;;;;;590.13;558.97;;;9.40;99.90;;;;;;6122435;23;20437;-78
2023/03/18 01:16:09;;;;;;;608.23;575.07;;;9.40;99.90;;;;;;6124538;23;20501;-78
2023/03/18 01:18:37;;;;;;;638.17;602.37;;;9.30;99.90;;;;;;6123046;23;20445;-77
2023/03/18 01:21:04;;;;;;;653.43;614.27;;;9.30;99.90;;;;;;6122863;23;20415;-77
2023/03/18 01:23:31;;;;;;;671.10;627.83;;;9.40;99.90;;;;;;6124296;23;20431;-77
2023/03/18 01:25:58;;;;;;;672.67;629.80;;;9.40;99.90;;;;;;6097854;23;20418;-77
2023/03/18 01:28:26;;;;;;;656.57;614.87;;;9.60;99.90;;;;;;6124500;23;20485;-78
2023/03/18 01:30:54;;;;;;;654.60;613.00;;;9.60;99.90;;;;;;6098755;23;20450;-77
2023/03/18 01:33:25;;;;;;;648.50;607.80;;;9.60;99.90;;;;;;6125160;23;20411;-78
2023/03/18 01:35:54;;;;;;;657.17;616.37;;;9.60;99.90;;;;;;6125336;23;20411;-78
2023/03/18 01:38:21;;;;;;;656.73;615.53;;;9.60;99.90;;;;;;6124335;23;20430;-78
2023/03/18 01:40:48;;;;;;;661.80;619.50;;;9.60;99.90;;;;;;6125065;23;20415;-78
2023/03/18 01:43:19;;;;;;;663.70;621.83;;;9.60;99.90;;;;;;6098929;23;20438;-78
2023/03/18 01:45:49;;;;;;;657.13;615.60;;;9.60;99.90;;;;;;6125094;23;20914;-78
2023/03/18 01:48:17;;;;;;;654.33;612.30;;;9.50;99.90;;;;;;6098770;23;20526;-78
2023/03/18 01:50:54;;;;;;;656.13;614.77;;;9.50;99.90;;;;;;6124828;23;20421;-78
2023/03/18 01:53:22;;;;;;;672.67;630.67;;;9.40;99.90;;;;;;6124409;23;20867;-78
2023/03/18 01:55:51;;;;;;;689.00;645.20;;;9.40;99.90;;;;;;6122825;23;20426;-78
2023/03/18 01:58:21;;;;;;;703.20;655.80;;;9.30;99.90;;;;;;6123793;23;20434;-77
2023/03/18 02:00:52;;;;;;;698.10;648.43;;;9.30;99.90;;;;;;6123489;23;20502;-77
2023/03/18 02:03:21;;;;;;;694.20;644.90;;;9.30;99.90;;;;;;6098464;23;20455;-78
2023/03/18 02:05:50;;;;;;;686.77;638.90;;;9.20;99.90;;;;;;6124334;23;20415;-78
2023/03/18 02:08:17;;;;;;;692.87;644.47;;;9.10;99.90;;;;;;6124622;23;20845;-77
2023/03/18 02:10:45;;;;;;;693.83;645.07;;;9.10;99.90;;;;;;6123885;23;20420;-77
2023/03/18 02:13:14;;;;;;;696.77;649.47;;;9.00;99.90;;;;;;6123831;23;20415;-78
2023/03/18 02:15:46;;;;;;;707.80;658.50;;;9.10;99.90;;;;;;6124853;23;20426;-77
2023/03/18 02:18:18;;;;;;;713.77;663.10;;;9.00;99.90;;;;;;6123610;23;20439;-77
2023/03/18 02:21:02;;;;;;;705.77;656.03;;;9.00;99.90;;;;;;6124147;23;20415;-77
2023/03/18 02:23:36;;;;;;;698.27;652.63;;;9.00;99.90;;;;;;6124771;23;20461;-77
2023/03/18 02:26:10;;;;;;;690.60;646.73;;;9.10;99.90;;;;;;6124669;23;20403;-77
2023/03/18 02:28:43;;;;;;;665.63;625.63;;;9.00;99.90;;;;;;6124459;23;20435;-77
2023/03/18 02:31:15;;;;;;;682.00;638.23;;;9.00;99.90;;;;;;6133946;23;20407;-77
2023/03/18 02:33:47;;;;;;;656.53;617.23;;;9.00;99.90;;;;;;6124376;23;20395;-77
2023/03/18 02:36:18;;;;;;;605.90;571.23;;;9.10;99.90;;;;;;6123560;23;20405;-77
2023/03/18 02:38:46;;;;;;;632.07;591.77;;;9.30;99.90;;;;;;6097368;23;20443;-77
2023/03/18 02:41:15;;;;;;;649.33;606.53;;;9.30;99.90;;;;;;6121937;23;20415;-77
2023/03/18 02:43:44;;;;;;;655.23;611.57;;;9.10;99.90;;;;;;6124519;23;20442;-77
2023/03/18 02:46:29;;;;;;;665.63;620.87;;;9.10;99.90;;;;;;6097233;23;20419;-77
2023/03/18 02:48:59;;;;;;;675.03;627.17;;;8.90;99.90;;;;;;6098915;23;20794;-78
2023/03/18 02:51:27;;;;;;;674.07;624.90;;;8.90;99.90;;;;;;6097921;23;20425;-77
2023/03/18 02:53:58;;;;;;;681.63;633.07;;;8.80;99.90;;;;;;6124614;23;20727;-77
2023/03/18 02:56:25;;;;;;;694.30;645.37;;;8.80;99.90;;;;;;6123758;23;20482;-77
2023/03/18 02:58:53;;;;;;;698.00;648.00;;;8.80;99.90;;;;;;6124251;23;20438;-77
2023/03/18 03:01:21;;;;;;;707.40;655.77;;;8.60;99.90;;;;;;6097709;23;20419;-77
2023/03/18 03:03:48;;;;;;;717.97;665.17;;;8.50;99.90;;;;;;6122926;23;20446;-77
2023/03/18 03:06:14;;;;;;;720.57;668.00;;;8.40;99.90;;;;;;6122721;23;20419;-77
2023/03/18 03:08:41;;;;;;;733.90;678.20;;;8.30;99.90;;;;;;6122854;23;20434;-77
2023/03/18 03:11:10;;;;;;;739.90;682.67;;;8.30;99.90;;;;;;6130791;23;20418;-77
2023/03/18 03:13:38;;;;;;;737.47;677.37;;;8.20;99.90;;;;;;6123515;23;20415;-77
2023/03/18 03:16:09;;;;;;;748.63;687.17;;;8.20;99.90;;;;;;6098184;23;20414;-77
2023/03/18 03:18:36;;;;;;;751.30;687.77;;;8.20;99.90;;;;;;6123616;23;20477;-77
2023/03/18 03:21:03;;;;;;;766.60;702.20;;;8.20;99.90;;;;;;6123842;23;20422;-77
2023/03/18 03:23:31;;;;;;;769.73;704.20;;;8.20;99.90;;;;;;6124009;23;20911;-77
2023/03/18 03:25:58;;;;;;;778.60;712.80;;;8.00;99.90;;;;;;6122491;23;20498;-77
2023/03/18 03:28:25;;;;;;;764.77;699.50;;;8.00;99.90;;;;;;6122544;23;20434;-77
2023/03/18 03:30:53;;;;;;;770.70;703.93;;;7.90;99.90;;;;;;6121970;23;20415;-77
2023/03/18 03:33:21;;;;;;;776.87;710.87;;;7.90;99.90;;;;;;6122608;23;20414;-77
2023/03/18 03:35:49;;;;;;;781.03;714.70;;;8.00;99.90;;;;;;6124053;23;20418;-77
2023/03/18 03:38:17;;;;;;;758.23;697.63;;;8.20;99.90;;;;;;6123180;23;20435;-77
2023/03/18 03:40:45;;;;;;;748.17;688.87;;;8.30;99.90;;;;;;6096867;23;20421;-77
2023/03/18 03:43:12;;;;;;;745.63;687.37;;;8.20;99.90;;;;;;6124219;23;20673;-77
2023/03/18 03:45:43;;;;;;;733.47;676.17;;;8.30;99.90;;;;;;6123945;23;20442;-77
2023/03/18 03:48:11;;;;;;;682.67;631.30;;;8.40;99.90;;;;;;6123732;23;20502;-77
2023/03/18 03:50:41;;;;;;;667.57;619.30;;;8.50;99.90;;;;;;6124053;23;20414;-77
2023/03/18 03:53:09;;;;;;;689.37;640.00;;;8.40;99.90;;;;;;6098336;23;20729;-77
2023/03/18 03:55:36;;;;;;;707.73;655.63;;;8.20;99.90;;;;;;6097821;23;20429;-77
2023/03/18 03:58:03;;;;;;;727.77;672.90;;;8.10;99.90;;;;;;6123309;23;20439;-77
2023/03/18 04:00:32;;;;;;;728.10;672.40;;;8.00;99.90;;;;;;6097778;23;20419;-77
2023/03/18 04:02:59;;;;;;;721.37;663.67;;;8.10;99.90;;;;;;6121508;23;20414;-77
2023/03/18 04:05:27;;;;;;;719.87;664.70;;;8.30;99.90;;;;;;6123101;23;20442;-77
2023/03/18 04:07:58;;;;;;;706.80;652.70;;;8.40;99.90;;;;;;6097674;23;20441;-77
2023/03/18 04:10:26;;;;;;;677.53;628.27;;;8.40;99.90;;;;;;6124008;23;20430;-77
2023/03/18 04:12:53;;;;;;;695.57;641.97;;;8.50;99.90;;;;;;6120688;23;20418;-77
2023/03/18 04:15:23;;;;;;;691.40;639.27;;;8.50;99.90;;;;;;6123826;23;20411;-77
2023/03/18 04:17:51;;;;;;;700.27;646.37;;;8.50;99.90;;;;;;6123493;23;20435;-77
2023/03/18 04:20:19;;;;;;;691.70;640.13;;;8.40;99.90;;;;;;6123403;23;20423;-77
2023/03/18 04:22:46;;;;;;;695.27;643.60;;;8.40;99.90;;;;;;6122680;23;20446;-77
2023/03/18 04:25:15;;;;;;;713.07;659.07;;;8.30;99.90;;;;;;6123386;23;20497;-77
2023/03/18 04:27:42;;;;;;;723.23;668.57;;;8.20;99.90;;;;;;6122590;23;20474;-77
2023/03/18 04:30:16;;;;;;;708.93;653.33;;;8.20;99.90;;;;;;6123830;23;20415;-77
2023/03/18 04:32:43;;;;;;;720.67;662.97;;;8.10;99.90;;;;;;6120911;23;20399;-77
2023/03/18 04:35:11;;;;;;;716.37;659.27;;;8.00;99.90;;;;;;6122816;23;20415;-77
2023/03/18 04:37:37;;;;;;;720.50;663.53;;;7.90;99.90;;;;;;6122904;23;20434;-77
2023/03/18 04:40:09;;;;;;;725.77;666.40;;;7.90;99.90;;;;;;6122897;23;20968;-77
2023/03/18 04:42:38;;;;;;;721.00;661.17;;;8.00;99.90;;;;;;6096218;23;20476;-77
2023/03/18 04:45:05;;;;;;;722.90;662.83;;;7.90;99.90;;;;;;6123393;23;20470;-77
2023/03/18 04:47:34;;;;;;;730.23;671.63;;;7.90;99.90;;;;;;6095349;23;20419;-77
2023/03/18 04:50:03;;;;;;;717.43;660.27;;;7.80;99.90;;;;;;6124568;23;20840;-77
2023/03/18 04:52:30;;;;;;;702.80;646.80;;;7.80;99.90;;;;;;6124238;23;20423;-77
2023/03/18 04:55:00;;;;;;;708.70;653.37;;;7.70;99.90;;;;;;6125205;23;20419;-77
2023/03/18 04:57:27;;;;;;;696.83;642.03;;;7.50;99.90;;;;;;6125092;23;20470;-77
2023/03/18 04:59:57;;;;;;;711.40;652.80;;;7.40;99.90;;;;;;6123567;23;20419;-77
2023/03/18 05:02:24;;;;;;;716.40;655.60;;;7.40;99.90;;;;;;6124885;23;20419;-77
2023/03/18 05:04:50;;;;;;;723.73;661.00;;;7.60;99.90;;;;;;6123011;23;20958;-77
2023/03/18 05:07:17;;;;;;;719.17;655.87;;;7.80;99.90;;;;;;6124899;23;20785;-77
2023/03/18 05:09:45;;;;;;;718.30;655.20;;;8.00;99.90;;;;;;6124782;23;20554;-77
2023/03/18 05:12:14;;;;;;;717.27;655.40;;;8.20;99.90;;;;;;6134212;23;20406;-77
2023/03/18 05:14:45;;;;;;;717.70;657.17;;;8.40;99.90;;;;;;6125120;23;20416;-77
2023/03/18 05:17:16;;;;;;;699.83;642.27;;;8.50;99.90;;;;;;6124902;23;20398;-77
2023/03/18 05:19:43;;;;;;;692.47;636.53;;;8.50;99.90;;;;;;6125254;23;20403;-77
2023/03/18 05:22:11;;;;;;;671.87;617.60;;;8.70;99.90;;;;;;6098988;23;20802;-77
2023/03/18 05:24:38;;;;;;;679.90;627.00;;;8.70;99.90;;;;;;6098993;23;20505;-77
2023/03/18 05:27:05;;;;;;;668.17;616.83;;;8.60;99.90;;;;;;6124991;23;20425;-77
2023/03/18 05:29:32;;;;;;;663.47;612.37;;;8.60;99.90;;;;;;6125192;23;20522;-77
2023/03/18 05:31:59;;;;;;;678.07;626.87;;;8.70;99.90;;;;;;6124966;23;20461;-77
2023/03/18 05:34:27;;;;;;;684.53;633.30;;;8.60;99.90;;;;;;6124143;23;20421;-77
2023/03/18 05:36:54;;;;;;;676.20;626.30;;;8.80;99.90;;;;;;6098267;23;20449;-77
2023/03/18 05:39:21;;;;;;;665.47;616.30;;;8.80;99.90;;;;;;6123953;23;20435;-77
2023/03/18 05:41:48;;;;;;;644.37;600.80;;;8.80;99.90;;;;;;6124256;23;20987;-77
2023/03/18 05:44:16;;;;;;;586.73;552.30;;;8.80;99.90;;;;;;6124575;23;20415;-77
2023/03/18 05:46:47;;;;;;;549.47;520.80;;;8.80;99.90;;;;;;6134636;23;20417;-77
2023/03/18 05:49:15;;;;;;;568.13;538.87;;;8.60;99.90;;;;;;6125042;23;20773;-77
2023/03/18 05:51:45;;;;;;;605.80;572.57;;;8.60;99.90;;;;;;6124611;23;20502;-77
2023/03/18 05:54:12;;;;;;;607.50;573.60;;;8.60;99.90;;;;;;6125030;23;20418;-77
2023/03/18 05:56:42;;;;;;;638.67;600.37;;;8.60;99.90;;;;;;6124913;23;20421;-77
2023/03/18 05:59:09;;;;;;;647.33;606.70;;;8.60;99.90;;;;;;6134391;23;20645;-77
2023/03/18 06:01:36;;;;;;;643.80;602.67;;;8.50;99.90;;;;;;6123609;23;20474;-77
2023/03/18 06:04:05;;;;;;;647.67;606.07;;;8.40;99.90;;;;;;6125153;23;20419;-77
2023/03/18 06:06:32;;;;;;;673.70;629.20;;;8.30;99.90;;;;;;6099148;23;20458;-77
2023/03/18 06:09:00;;;;;;;681.00;633.90;;;8.20;99.90;;;;;;6125636;23;20770;-77
2023/03/18 06:11:28;;;;;;;703.90;653.80;;;8.10;99.90;;;;;;6124926;23;20419;-77
2023/03/18 06:13:55;;;;;;;703.40;652.43;;;8.00;99.90;;;;;;6125546;23;20784;-77
2023/03/18 06:16:23;;;;;;;707.20;656.10;;;8.00;99.90;;;;;;6125014;23;20481;-79
2023/03/18 06:18:50;;;;;;;716.43;663.00;;;8.00;99.90;;;;;;6125020;23;20467;-75
2023/03/18 06:21:17;;;;;;;713.70;658.90;;;7.90;99.90;;;;;;6124287;23;20473;-77
2023/03/18 06:23:44;;;;;;;712.50;657.97;;;7.90;99.90;;;;;;6099448;23;21135;-76
2023/03/18 06:26:13;;;;;;;702.53;648.53;;;8.00;99.90;;;;;;6124938;23;20489;-76
2023/03/18 06:28:40;;;;;;;716.27;661.37;;;8.20;99.90;;;;;;6125364;23;20446;-77
2023/03/18 06:31:26;;;;;;;693.47;638.57;;;8.20;99.90;;;;;;6125381;23;20497;-77
2023/03/18 06:33:53;;;;;;;709.57;653.77;;;8.20;99.90;;;;;;6125731;23;20435;-77
2023/03/18 06:36:21;;;;;;;712.23;655.87;;;8.20;99.90;;;;;;6124832;23;20429;-76
2023/03/18 06:38:49;;;;;;;702.17;646.53;;;8.30;99.90;;;;;;6124481;23;20438;-77
2023/03/18 06:41:23;;;;;;;689.57;633.97;;;8.40;99.90;;;;;;6124191;23;20911;-77
2023/03/18 06:43:50;;;;;;;686.40;634.30;;;8.60;99.90;;;;;;6124849;23;20402;-77
2023/03/18 06:46:18;;;;;;;674.87;623.20;;;8.70;99.90;;;;;;6124789;23;20474;-77
2023/03/18 06:48:45;;;;;;;676.93;625.93;;;8.90;99.90;;;;;;6124932;23;20514;-79
2023/03/18 06:51:12;;;;;;;677.73;626.50;;;8.90;99.90;;;;;;6098717;23;20439;-77
2023/03/18 06:53:41;;;;;;;683.07;631.40;;;9.00;99.90;;;;;;6096279;23;20419;-77
2023/03/18 06:56:08;;;;;;;681.30;629.20;;;9.20;99.90;;;;;;6123495;23;20425;-77
2023/03/18 06:58:54;;;;;;;678.37;626.57;;;9.20;99.90;;;;;;6123537;23;20470;-77
2023/03/18 07:01:21;;;;;;;683.90;632.20;;;9.30;99.90;;;;;;6123230;23;20437;-77
2023/03/18 07:06:30;;;;;;;674.53;623.50;;;9.50;99.90;;;;;;6118009;23;20450;-78
2023/03/18 07:08:57;;;;;;;679.30;629.30;;;9.70;99.90;;;;;;6120307;23;20439;-78
2023/03/18 07:11:25;;;;;;;672.23;621.20;;;9.80;99.90;;;;;;6120069;23;20498;-78
2023/03/18 07:13:52;;;;;;;656.03;608.30;;;10.00;99.90;;;;;;6122576;23;20730;-78
2023/03/18 07:16:51;;;;;;;646.07;600.17;;;10.20;99.90;;;;;;6120936;23;20415;-78
2023/03/18 07:19:19;;;;;;;631.53;587.97;;;10.40;99.90;;;;;;6140524;23;20460;-77
2023/03/18 07:24:54;;;;;;;509.03;481.63;;;10.70;99.90;;;;;;6137418;23;20444;-78
2023/03/18 07:27:22;;;;;;;505.53;480.13;;;11.00;99.90;;;;;;6151040;23;20414;-77
2023/03/18 07:29:51;;;;;;;425.77;407.83;;;11.20;99.90;;;;;;6161868;23;20428;-77
2023/03/18 07:32:19;;;;;;;324.43;312.57;;;11.30;99.90;;;;;;6161258;23;20814;-77
2023/03/18 07:34:46;;;;;;;276.97;266.93;;;11.50;99.90;;;;;;6151821;23;20414;-77
2023/03/18 07:37:13;;;;;;;309.17;298.43;;;11.50;99.90;;;;;;6152007;23;20504;-77
2023/03/18 07:39:42;;;;;;;252.57;244.20;;;11.70;99.90;;;;;;6150242;23;20507;-77
2023/03/18 07:42:09;;;;;;;150.27;144.73;;;11.70;99.90;;;;;;6122909;23;20425;-77
2023/03/18 07:44:36;;;;;;;137.20;132.50;;;11.90;99.90;;;;;;6151170;23;20414;-77
2023/03/18 07:47:03;;;;;;;98.73;94.73;;;11.90;99.90;;;;;;6150553;23;20450;-77
2023/03/18 07:49:31;;;;;;;67.90;65.17;;;12.00;99.90;;;;;;6152157;23;20521;-77
2023/03/18 07:51:59;;;;;;;57.00;54.63;;;12.10;99.90;;;;;;6149501;23;20456;-77
2023/03/18 07:54:26;;;;;;;42.50;40.70;;;12.20;99.90;;;;;;6151205;23;20410;-77
2023/03/18 07:56:53;;;;;;;24.40;22.57;;;12.20;99.90;;;;;;6152207;23;20726;-77
2023/03/18 07:59:20;;;;;;;26.80;25.30;;;12.30;99.90;;;;;;6125627;23;20433;-77
2023/03/18 08:01:47;;;;;;;25.77;24.03;;;12.30;99.90;;;;;;6152000;23;20453;-77
2023/03/18 08:04:15;;;;;;;20.67;19.20;;;12.30;99.90;;;;;;6153695;23;20420;-77
2023/03/18 08:06:43;;;;;;;22.40;20.97;;;12.40;99.90;;;;;;6152093;23;20440;-77
2023/03/18 08:09:11;;;;;;;17.60;16.30;;;12.40;99.90;;;;;;6151853;23;20433;-77
2023/03/18 08:11:38;;;;;;;11.53;10.63;;;12.50;99.90;;;;;;6152072;23;20414;-77
2023/03/18 08:14:05;;;;;;;14.27;10.90;;;12.40;99.90;;;;;;6153157;23;20941;-78
2023/03/18 08:16:31;;;;;;;9.07;7.03;;;12.50;99.90;;;;;;6127722;23;20414;-77
2023/03/18 08:18:59;;;;;;;10.17;7.83;;;12.50;99.90;;;;;;6153213;23;20448;-77
2023/03/18 08:21:26;;;;;;;14.47;6.43;;;12.50;99.90;;;;;;6152477;23;20452;-77
2023/03/18 08:23:55;;;;;;;10.40;6.73;;;12.60;99.90;;;;;;6152069;23;20976;-77
2023/03/18 08:26:22;;;;;;;12.17;5.03;;;12.80;99.90;;;;;;6154745;23;20441;-77
2023/03/18 08:28:49;;;;;;;8.83;6.73;;;12.90;99.90;;;;;;6154519;23;20440;-77
2023/03/18 08:31:16;;;;;;;9.80;7.20;;;13.00;99.90;;;;;;6164042;23;20501;-77
2023/03/18 08:33:46;;;;;;;7.63;6.03;;;13.30;99.90;;;;;;6153212;23;20497;-78
2023/03/18 08:36:14;;;;;;;10.83;7.07;;;13.40;99.90;;;;;;6155108;23;20409;-78
2023/03/18 08:38:42;;;;;;;8.70;5.00;;;13.50;99.90;;;;;;6154161;23;20497;-77
2023/03/18 08:41:10;;;;;;;9.87;5.80;;;13.60;99.90;;;;;;6155010;23;20488;-77
2023/03/18 08:43:38;;;;;;;10.73;3.83;;;13.80;99.90;;;;;;6153825;23;20418;-77
2023/03/18 08:46:06;;;;;;;7.63;3.80;;;13.90;99.90;;;;;;6154669;23;20438;-77
2023/03/18 08:48:35;;;;;;;6.80;3.73;;;14.00;99.90;;;;;;6154662;23;20932;-77
2023/03/18 08:51:03;;;;;;;5.80;3.23;;;14.30;99.90;;;;;;6154496;23;20423;-77
2023/03/18 08:53:30;;;;;;;6.97;3.73;;;14.30;99.90;;;;;;6154839;23;20419;-78
2023/03/18 08:55:57;;;;;;;7.37;3.87;;;14.20;99.90;;;;;;6154096;23;20412;-77
2023/03/18 08:58:30;;;;;;;6.83;3.33;;;14.40;99.90;;;;;;6128320;23;20465;-79
2023/03/18 09:00:57;;;;;;;6.57;2.73;;;14.50;99.90;;;;;;6152838;23;20885;-77
2023/03/18 09:03:24;;;;;;;7.97;3.33;;;14.50;99.90;;;;;;6153371;23;20910;-76
2023/03/18 09:05:51;;;;;;;6.70;3.10;;;14.90;99.90;;;;;;6152997;23;20443;-76
2023/03/18 09:08:20;;;;;;;6.60;3.00;;;14.90;99.90;;;;;;6151984;23;20450;-82
2023/03/18 09:10:51;;;;;;;8.33;2.70;;;15.10;99.90;;;;;;6153863;23;20425;-77
2023/03/18 09:13:18;;;;;;;7.10;2.93;;;15.40;99.90;;;;;;6154335;23;20413;-81
2023/03/18 09:15:46;;;;;;;6.30;3.07;;;15.60;99.90;;;;;;6153432;23;20417;-79
2023/03/18 09:18:17;;;;;;;5.93;2.90;;;15.80;99.90;;;;;;6152662;23;21413;-80
2023/03/18 09:20:46;;;;;;;5.40;2.70;;;15.70;99.90;;;;;;6153150;23;20924;-83
2023/03/18 09:23:16;;;;;;;7.27;3.20;;;15.80;99.90;;;;;;6151955;23;20414;-83
2023/03/18 09:25:42;;;;;;;6.70;3.00;;;15.70;99.90;;;;;;6154704;23;20434;-78
2023/03/18 09:28:10;;;;;;;8.57;3.13;;;15.60;99.90;;;;;;6154330;23;20444;-79
2023/03/18 09:30:37;;;;;;;9.30;3.23;;;15.80;99.90;;;;;;6153438;23;20418;-80
2023/03/18 09:33:06;;;;;;;6.50;3.60;;;15.90;99.90;;;;;;6153811;23;20443;-79
2023/03/18 09:35:33;;;;;;;6.70;3.93;;;16.10;99.90;;;;;;6154350;23;20459;-80
2023/03/18 09:38:01;;;;;;;7.37;3.67;;;16.20;99.90;;;;;;6151507;23;20844;-80
2023/03/18 09:40:30;;;;;;;7.57;3.30;;;16.20;99.90;;;;;;6153754;23;20927;-79
2023/03/18 09:43:09;;;;;;;7.67;2.97;;;16.30;98.00;;;;;;6153488;23;20452;-79
2023/03/18 09:45:45;;;;;;;9.97;3.50;;;16.40;98.30;;;;;;6153310;23;20507;-79
2023/03/18 09:48:45;;;;;;;5.83;2.90;;;17.00;98.90;;;;;;6162839;23;20755;-79
2023/03/18 09:51:28;;;;;;;6.93;2.60;;;17.50;96.80;;;;;;6080852;23;20421;-80
2023/03/18 09:54:02;;;;;;;5.17;2.30;;;18.00;95.00;;;;;;6154389;23;20400;-80
2023/03/18 09:56:33;;;;;;;6.57;2.90;;;18.30;94.40;;;;;;6154488;23;20414;-80
2023/03/18 09:59:03;;;;;;;7.20;2.30;;;18.30;90.60;;;;;;6154083;23;20461;-80
2023/03/18 10:01:33;;;;;;;6.13;2.77;;;18.40;90.20;;;;;;6153975;23;20869;-80
2023/03/18 10:04:04;;;;;;;9.53;3.10;;;18.40;89.40;;;;;;6154283;23;20416;-80
2023/03/18 10:06:33;;;;;;;7.03;2.67;;;18.90;87.50;;;;;;6154071;23;20432;-80
2023/03/18 10:09:09;;;;;;;8.93;2.23;;;19.60;85.70;;;;;;6153723;23;20435;-80
2023/03/18 10:11:41;;;;;;;4.73;2.17;;;20.00;81.80;;;;;;6152993;23;20505;-80
2023/03/18 10:14:18;;;;;;;6.30;1.87;;;20.10;76.10;;;;;;6154268;23;20408;-80
2023/03/18 10:17:03;;;;;;;6.07;2.07;;;20.90;74.30;;;;;;6152381;23;20406;-81
2023/03/18 10:19:31;;;;;;;5.70;2.80;;;20.80;72.00;;;;;;6153495;23;20461;-80
2023/03/18 10:22:15;;;;;;;7.67;2.27;;;20.70;76.00;;;;;;6137289;23;20912;-80
2023/03/18 10:24:48;;;;;;;5.75;2.17;;;20.30;70.40;;;;;;6154405;23;20452;-86
2023/03/18 10:27:21;;;;;;;8.10;2.37;;;19.70;72.20;;;;;;6153920;23;20217;-86
2023/03/18 10:29:57;;;;;;;5.90;2.47;;;19.40;73.00;;;;;;6154168;23;20779;-86
2023/03/18 10:32:35;;;;;;;7.40;2.50;;;19.30;77.30;;;;;;6153401;23;20422;-86
2023/03/18 10:35:18;;;;;;;8.43;2.23;;;19.40;77.60;;;;;;6153667;23;20399;-87
2023/03/18 10:37:56;;;;;;;6.60;2.80;;;20.20;75.50;;;;;;6153916;23;20487;-87
2023/03/18 10:40:25;;;;;;;7.20;2.80;;;20.80;71.20;;;;;;6153647;23;20457;-87
2023/03/18 10:42:55;;;;;;;6.10;2.47;;;20.70;70.00;;;;;;6153346;23;20417;-88
2023/03/18 10:45:25;;;;;;;7.30;2.50;;;21.20;71.20;;;;;;6153865;23;20415;-89
2023/03/18 10:48:00;;;;;;;8.17;2.60;;;21.70;68.70;;;;;;6137561;23;20445;-88
2023/03/18 10:50:32;;;;;;;6.10;2.50;;;22.10;65.80;;;;;;6127754;23;20420;-79
2023/03/18 10:53:12;;;;;;;7.37;2.67;;;22.20;63.40;;;;;;6127288;23;20405;-80
2023/03/18 10:55:49;;;;;;;8.10;3.10;;;22.70;61.30;;;;;;6154075;23;20742;-80
2023/03/18 10:58:18;;;;;;;6.70;2.23;;;22.80;58.10;;;;;;6153862;23;20443;-80
2023/03/18 11:00:45;;;;;;;10.97;2.70;;;23.20;56.20;;;;;;6153942;23;20414;-90
2023/03/18 11:03:22;;;;;;;9.10;2.40;;;23.50;52.40;;;;;;6153226;23;20462;-90
2023/03/18 11:05:52;;;;;;;5.30;1.63;;;23.60;50.50;;;;;;6152307;23;20430;-89
2023/03/18 11:08:50;;;;;;;7.90;2.10;;;23.50;47.60;;;;;;6153639;23;20444;-89
2023/03/18 11:11:25;;;;;;;14.07;2.30;;;23.10;46.40;;;;;;6152731;23;20441;-90
2023/03/18 11:13:55;;;;;;;5.60;1.90;;;23.20;47.30;;;;;;6154001;23;20401;-89
2023/03/18 11:16:28;;;;;;;7.93;2.17;;;22.50;46.70;;;;;;6153249;23;20416;-91
2023/03/18 11:18:56;;;;;;;5.67;2.17;;;21.80;50.60;;;;;;6153418;23;20469;-88
2023/03/18 11:21:25;;;;;;;6.00;1.83;;;20.90;54.10;;;;;;6153093;23;20413;-90
2023/03/18 11:24:07;;;;;;;10.03;1.70;;;21.50;57.00;;;;;;6154163;23;20416;-89
2023/03/18 11:26:46;;;;;;;5.60;1.63;;;22.30;49.10;;;;;;6153633;23;20480;-88
2023/03/18 11:29:17;;;;;;;4.50;1.50;;;22.80;51.60;;;;;;6151963;23;20440;-89
2023/03/18 11:31:57;;;;;;;4.77;1.40;;;22.10;40.80;;;;;;6127179;23;20425;-89
2023/03/18 11:34:24;;;;;;;6.67;2.07;;;20.80;45.10;;;;;;6158820;23;20805;-89
2023/03/18 11:36:59;;;;;;;5.10;1.50;;;20.00;49.50;;;;;;6154282;23;20420;-88
2023/03/18 11:39:30;;;;;;;6.63;2.50;;;19.60;58.10;;;;;;6154459;23;20434;-89
2023/03/18 11:41:58;;;;;;;5.30;1.77;;;19.20;61.20;;;;;;6153365;23;20413;-88
2023/03/18 11:44:31;;;;;;;5.20;1.87;;;19.20;57.70;;;;;;6154516;23;20464;-89
2023/03/18 11:47:04;;;;;;;7.40;2.10;;;19.30;60.10;;;;;;6154318;23;20536;-88
2023/03/18 11:49:32;;;;;;;6.43;1.80;;;19.30;59.30;;;;;;6153746;23;20442;-89
2023/03/18 11:52:08;;;;;;;5.53;2.13;;;19.40;58.10;;;;;;6154980;23;20437;-89
2023/03/18 11:54:55;;;;;;;5.50;1.83;;;19.30;63.70;;;;;;6155558;23;20464;-89
2023/03/18 11:57:32;;;;;;;7.13;2.23;;;19.30;64.30;;;;;;6152610;23;20665;-89
2023/03/18 12:00:16;;;;;;;6.60;2.40;;;19.40;66.20;;;;;;6153898;23;20428;-88
2023/03/18 12:03:02;;;;;;;7.37;1.83;;;19.60;63.60;;;;;;6153312;23;20781;-89
2023/03/18 12:06:04;;;;;;;5.97;2.00;;;19.90;63.40;;;;;;6154176;23;20904;-89
2023/03/18 12:08:43;;;;;;;6.50;1.90;;;19.70;55.50;;;;;;6144571;23;20471;-88
2023/03/18 12:11:18;;;;;;;6.63;1.90;;;20.00;55.00;;;;;;6128540;23;20785;-89
2023/03/18 12:13:57;;;;;;;6.23;1.63;;;20.10;53.30;;;;;;6154692;23;20706;-90
2023/03/18 12:16:40;;;;;;;6.80;1.87;;;20.50;55.60;;;;;;6153725;23;20855;-88
2023/03/18 12:19:27;;;;;;;6.65;1.88;;;20.60;53.80;;;;;;6152954;23;20901;-89
2023/03/18 12:22:20;;;;;;;6.13;2.20;;;20.90;54.10;;;;;;6128375;23;20155;-88
2023/03/18 12:25:08;;;;;;;5.77;2.23;;;21.40;53.80;;;;;;6154542;23;20446;-88
2023/03/18 12:27:48;;;;;;;6.10;1.30;;;22.00;52.70;;;;;;6162606;23;20450;-90
2023/03/18 12:30:35;;;;;;;5.20;1.70;;;22.20;49.10;;;;;;6154098;23;20442;-89
2023/03/18 12:33:13;;;;;;;7.87;2.27;;;22.20;50.40;;;;;;6152461;23;20390;-88
2023/03/18 12:35:53;;;;;;;6.47;1.83;;;21.80;50.50;;;;;;6153451;23;20434;-88
2023/03/18 12:38:53;;;;;;;5.23;1.80;;;21.80;50.20;;;;;;6153362;23;20454;-89
2023/03/18 12:41:29;;;;;;;6.13;2.00;;;21.80;50.50;;;;;;6140699;23;20423;-88
2023/03/18 12:44:13;;;;;;;7.20;2.25;;;22.90;47.10;;;;;;6152648;23;20827;-88
2023/03/18 12:46:45;;;;;;;6.20;1.70;;;23.20;44.10;;;;;;6152251;23;20562;-89
2023/03/18 12:49:21;;;;;;;6.17;1.93;;;23.00;40.90;;;;;;6153872;23;20470;-88
2023/03/18 12:51:54;;;;;;;6.50;1.90;;;22.70;43.30;;;;;;6153416;23;20874;-88